createdAt,value
2023-03-18T00:01:36.938Z,67.90
2023-03-18T00:03:39.902Z,67.80
2023-03-18T00:05:43.031Z,67.90
2023-03-18T00:07:46.630Z,67.70
2023-03-18T00:09:52.818Z,67.90
2023-03-18T00:11:56.588Z,68.10
2023-03-18T00:14:00.166Z,68.10
2023-03-18T00:16:04.288Z,68.30
2023-03-18T00:18:07.072Z,68.30
2023-03-18T00:20:12.890Z,68.20
2023-03-18T00:22:15.598Z,68.30
2023-03-18T00:24:18.448Z,68.00
2023-03-18T00:26:22.524Z,67.90
2023-03-18T00:28:25.889Z,67.80
2023-03-18T00:30:28.858Z,68.00
2023-03-18T00:32:32.705Z,67.80
2023-03-18T00:34:35.587Z,68.10
2023-03-18T00:36:38.462Z,68.20
2023-03-18T00:38:42.085Z,68.20
2023-03-18T00:40:53.329Z,68.40
2023-03-18T00:43:07.815Z,68.40
2023-03-18T00:45:11.912Z,68.30
2023-03-18T00:47:14.718Z,68.20
2023-03-18T00:49:17.858Z,67.90
2023-03-18T00:51:22.802Z,67.70
2023-03-18T00:53:26.161Z,67.50
2023-03-18T00:55:28.935Z,67.40
2023-03-18T00:57:32.094Z,67.20
2023-03-18T00:59:36.152Z,67.20
2023-03-18T01:01:39.247Z,67.30
2023-03-18T01:03:43.305Z,67.70
2023-03-18T01:05:46.115Z,68.00
2023-03-18T01:07:49.520Z,68.20
2023-03-18T01:09:52.342Z,68.30
2023-03-18T01:11:55.108Z,68.70
2023-03-18T01:13:59.367Z,68.90
2023-03-18T01:16:03.644Z,69.00
2023-03-18T01:18:06.523Z,69.10
2023-03-18T01:20:11.528Z,69.10
2023-03-18T01:22:14.541Z,69.20
2023-03-18T01:24:17.277Z,69.90
2023-03-18T01:26:20.230Z,69.00
2023-03-18T01:28:23.350Z,69.10
2023-03-18T01:30:26.252Z,69.20
2023-03-18T01:32:30.320Z,69.30
2023-03-18T01:34:34.182Z,69.40
2023-03-18T01:36:36.898Z,69.50
2023-03-18T01:38:40.802Z,69.50
2023-03-18T01:40:45.255Z,69.80
2023-03-18T01:42:54.283Z,69.90
2023-03-18T01:45:19.623Z,69.90
2023-03-18T01:47:22.330Z,70.00
2023-03-18T01:49:32.444Z,69.80
2023-03-18T01:51:35.792Z,69.80
2023-03-18T01:53:43.648Z,69.60
2023-03-18T01:55:48.156Z,69.40
2023-03-18T01:57:51.556Z,69.40
2023-03-18T01:59:56.060Z,69.50
2023-03-18T02:02:04.635Z,69.60
2023-03-18T02:04:10.361Z,69.70
2023-03-18T02:06:14.548Z,69.70
2023-03-18T02:08:17.409Z,69.70
2023-03-18T02:10:22.988Z,69.80
2023-03-18T02:12:29.532Z,69.80
2023-03-18T02:14:32.371Z,70.00
2023-03-18T02:16:41.334Z,69.90
2023-03-18T02:18:48.012Z,69.80
2023-03-18T02:21:07.310Z,69.80
2023-03-18T02:23:20.176Z,69.90
2023-03-18T02:25:34.617Z,69.80
2023-03-18T02:27:41.454Z,69.90
2023-03-18T02:29:45.062Z,69.90
2023-03-18T02:31:48.656Z,70.00
2023-03-18T02:33:52.065Z,69.80
2023-03-18T02:35:59.770Z,70.10
2023-03-18T02:38:03.250Z,70.10
2023-03-18T02:40:18.076Z,70.40
2023-03-18T02:42:29.639Z,70.70
2023-03-18T02:44:37.163Z,70.60
2023-03-18T02:46:48.086Z,70.50
2023-03-18T02:48:52.677Z,70.40
2023-03-18T02:50:56.229Z,70.30
2023-03-18T02:53:00.918Z,70.20
2023-03-18T02:55:03.814Z,70.40
2023-03-18T02:57:06.705Z,70.60
2023-03-18T02:59:10.536Z,71.10
2023-03-18T03:01:15.271Z,71.40
2023-03-18T03:03:18.550Z,71.20
2023-03-18T03:05:21.863Z,70.80
2023-03-18T03:07:27.717Z,70.80
2023-03-18T03:09:30.962Z,70.70
2023-03-18T03:11:34.149Z,70.50
2023-03-18T03:13:37.477Z,70.50
2023-03-18T03:15:41.043Z,70.40
2023-03-18T03:17:45.140Z,70.80
2023-03-18T03:19:47.840Z,70.60
2023-03-18T03:21:50.625Z,70.50
2023-03-18T03:23:54.443Z,70.70
2023-03-18T03:25:57.927Z,70.90
2023-03-18T03:28:00.881Z,71.00
2023-03-18T03:30:03.707Z,71.20
2023-03-18T03:32:07.021Z,71.30
2023-03-18T03:34:11.892Z,71.20
2023-03-18T03:36:17.771Z,71.20
2023-03-18T03:38:20.930Z,71.10
2023-03-18T03:40:23.691Z,71.30
2023-03-18T03:42:26.560Z,71.60
2023-03-18T03:44:29.314Z,71.70
2023-03-18T03:46:32.254Z,71.70
2023-03-18T03:48:35.604Z,71.80
2023-03-18T03:50:40.010Z,72.10
2023-03-18T03:52:43.522Z,72.40
2023-03-18T03:54:46.347Z,72.60
2023-03-18T03:56:49.183Z,73.00
2023-03-18T03:58:51.989Z,73.00
2023-03-18T04:00:55.843Z,73.20
2023-03-18T04:02:58.722Z,73.50
2023-03-18T04:05:02.315Z,73.60
2023-03-18T04:07:06.610Z,73.80
2023-03-18T04:09:09.682Z,74.50
2023-03-18T04:11:12.654Z,74.60
2023-03-18T04:13:15.563Z,74.70
2023-03-18T04:15:21.315Z,74.90
2023-03-18T04:17:24.636Z,75.00
2023-03-18T04:19:28.975Z,75.10
2023-03-18T04:21:31.787Z,75.30
2023-03-18T04:23:35.970Z,75.40
2023-03-18T04:25:39.160Z,75.70
2023-03-18T04:27:42.141Z,75.90
2023-03-18T04:29:44.879Z,76.20
2023-03-18T04:31:47.647Z,76.40
2023-03-18T04:33:50.419Z,76.40
2023-03-18T04:35:53.494Z,76.40
2023-03-18T04:37:56.387Z,76.50
2023-03-18T04:40:00.489Z,76.50
2023-03-18T04:42:03.532Z,76.90
2023-03-18T04:44:06.668Z,76.80
2023-03-18T04:46:10.193Z,77.10
2023-03-18T04:48:12.993Z,77.20
2023-03-18T04:50:17.630Z,77.30
2023-03-18T04:52:20.373Z,77.50
2023-03-18T04:54:23.701Z,77.80
2023-03-18T04:56:28.150Z,77.80
2023-03-18T04:58:31.402Z,78.70
2023-03-18T05:00:34.926Z,78.50
2023-03-18T05:02:38.214Z,78.30
2023-03-18T05:04:40.940Z,79.30
2023-03-18T05:06:44.004Z,79.60
2023-03-18T05:08:46.713Z,80.00
2023-03-18T05:10:50.980Z,80.00
2023-03-18T05:12:55.209Z,79.80
2023-03-18T05:14:57.965Z,79.70
2023-03-18T05:17:00.679Z,79.90
2023-03-18T05:19:03.846Z,80.00
2023-03-18T05:21:07.462Z,79.90
2023-03-18T05:23:10.457Z,79.70
2023-03-18T05:25:13.240Z,79.70
2023-03-18T05:27:18.207Z,79.70
2023-03-18T05:29:23.878Z,79.60
2023-03-18T05:31:27.214Z,79.50
2023-03-18T05:33:30.040Z,79.70
2023-03-18T05:35:33.088Z,79.70
2023-03-18T05:37:36.773Z,79.90
2023-03-18T05:39:39.817Z,80.00
2023-03-18T05:41:42.594Z,80.10
2023-03-18T05:43:45.298Z,80.10
2023-03-18T05:45:50.185Z,80.10
2023-03-18T05:47:53.097Z,80.20
2023-03-18T05:49:55.847Z,80.40
2023-03-18T05:51:58.661Z,80.40
2023-03-18T05:54:01.998Z,81.20
2023-03-18T05:56:05.083Z,80.40
2023-03-18T05:58:08.662Z,80.30
2023-03-18T06:00:13.420Z,80.50
2023-03-18T06:02:17.519Z,80.50
2023-03-18T06:04:20.816Z,80.30
2023-03-18T06:06:23.689Z,80.30
2023-03-18T06:08:26.437Z,80.20
2023-03-18T06:10:29.192Z,80.20
2023-03-18T06:12:31.991Z,80.20
2023-03-18T06:14:35.408Z,80.10
2023-03-18T06:16:38.881Z,80.20
2023-03-18T06:18:43.390Z,80.10
2023-03-18T06:20:46.333Z,80.10
2023-03-18T06:22:49.851Z,80.50
2023-03-18T06:24:53.338Z,80.50
2023-03-18T06:26:56.068Z,80.80
2023-03-18T06:28:59.008Z,80.70
2023-03-18T06:31:02.756Z,80.70
2023-03-18T06:33:06.103Z,80.70
2023-03-18T06:35:11.732Z,80.90
2023-03-18T06:37:15.284Z,81.10
2023-03-18T06:39:18.048Z,81.50
2023-03-18T06:41:21.104Z,81.60
2023-03-18T06:43:23.890Z,81.50
2023-03-18T06:45:26.862Z,81.90
2023-03-18T06:47:29.651Z,82.20
2023-03-18T06:49:32.657Z,82.10
2023-03-18T06:51:36.727Z,82.30
2023-03-18T06:53:39.774Z,82.50
2023-03-18T06:55:45.733Z,82.70
2023-03-18T06:57:48.653Z,82.60
2023-03-18T06:59:51.569Z,82.50
2023-03-18T07:01:55.082Z,82.20
2023-03-18T07:03:58.993Z,82.60
2023-03-18T07:06:02.506Z,81.80
2023-03-18T07:08:06.977Z,81.60
2023-03-18T07:10:12.161Z,81.50
2023-03-18T07:12:16.503Z,81.60
2023-03-18T07:14:19.352Z,81.50
2023-03-18T07:16:22.275Z,81.40
2023-03-18T07:18:25.158Z,81.20
2023-03-18T07:20:28.760Z,81.40
2023-03-18T07:22:31.503Z,81.50
2023-03-18T07:24:35.958Z,81.50
2023-03-18T07:26:38.711Z,81.70
2023-03-18T07:28:41.818Z,81.70
2023-03-18T07:30:45.039Z,81.50
2023-03-18T07:32:47.832Z,81.40
2023-03-18T07:34:50.813Z,81.40
2023-03-18T07:36:53.682Z,81.30
2023-03-18T07:38:56.758Z,81.30
2023-03-18T07:41:00.930Z,81.00
2023-03-18T07:43:03.684Z,80.90
2023-03-18T07:45:07.763Z,80.90
2023-03-18T07:47:10.768Z,80.70
2023-03-18T07:49:13.494Z,81.00
2023-03-18T07:51:16.611Z,81.60
2023-03-18T07:53:19.327Z,81.40
2023-03-18T07:55:22.133Z,81.10
2023-03-18T07:57:26.293Z,81.20
2023-03-18T07:59:29.047Z,81.00
2023-03-18T08:01:33.076Z,81.30
2023-03-18T08:03:35.995Z,81.00
2023-03-18T08:05:38.927Z,81.10
2023-03-18T08:07:41.736Z,81.10
2023-03-18T08:09:44.592Z,81.80
2023-03-18T08:11:47.645Z,81.30
2023-03-18T08:13:51.672Z,80.80
2023-03-18T08:15:54.940Z,81.10
2023-03-18T08:17:57.887Z,80.80
2023-03-18T08:20:00.628Z,80.60
2023-03-18T08:22:03.863Z,80.70
2023-03-18T08:24:07.742Z,80.70
2023-03-18T08:26:10.753Z,81.00
2023-03-18T08:28:13.525Z,81.00
2023-03-18T08:30:17.934Z,81.00
2023-03-18T08:32:21.908Z,80.90
2023-03-18T08:34:24.638Z,81.10
2023-03-18T08:36:27.630Z,80.50
2023-03-18T08:38:30.325Z,80.60
2023-03-18T08:40:36.288Z,80.70
2023-03-18T08:42:39.424Z,80.50
2023-03-18T08:44:43.469Z,80.50
2023-03-18T08:46:47.573Z,80.40
2023-03-18T08:48:51.411Z,80.20
2023-03-18T08:50:54.688Z,80.20
2023-03-18T08:52:58.723Z,79.80
2023-03-18T08:55:01.695Z,79.90
2023-03-18T08:57:04.488Z,80.20
2023-03-18T08:59:07.266Z,79.90
2023-03-18T09:01:11.931Z,79.50
2023-03-18T09:03:16.960Z,80.00
2023-03-18T09:05:20.001Z,79.60
2023-03-18T09:07:22.752Z,79.10
2023-03-18T09:09:40.949Z,78.20
2023-03-18T09:11:47.826Z,78.60
2023-03-18T09:13:50.581Z,79.20
2023-03-18T09:15:54.601Z,78.90
2023-03-18T09:18:10.984Z,78.70
2023-03-18T09:20:17.821Z,78.80
2023-03-18T09:22:21.726Z,77.90
2023-03-18T09:24:24.563Z,77.90
2023-03-18T09:26:27.345Z,77.90
2023-03-18T09:28:30.599Z,77.80
2023-03-18T09:30:34.008Z,77.70
2023-03-18T09:32:36.961Z,77.60
2023-03-18T09:34:39.950Z,77.70
2023-03-18T09:36:51.036Z,77.70
2023-03-18T09:38:54.276Z,77.20
2023-03-18T09:41:06.643Z,76.80
2023-03-18T09:43:29.358Z,77.00
2023-03-18T09:45:36.692Z,77.00
2023-03-18T09:48:09.629Z,76.70
2023-03-18T09:50:24.768Z,76.60
2023-03-18T09:52:32.851Z,75.80
2023-03-18T09:54:41.134Z,76.50
2023-03-18T09:56:46.120Z,77.20
2023-03-18T09:58:54.745Z,76.80
2023-03-18T10:01:02.006Z,76.40
2023-03-18T10:03:07.762Z,75.80
2023-03-18T10:05:16.739Z,75.60
2023-03-18T10:07:25.996Z,75.80
2023-03-18T10:09:33.914Z,76.20
2023-03-18T10:11:41.469Z,75.70
2023-03-18T10:13:49.684Z,75.40
2023-03-18T10:15:56.695Z,75.90
2023-03-18T10:18:04.991Z,75.70
2023-03-18T10:20:17.174Z,75.10
2023-03-18T10:22:44.996Z,75.00
2023-03-18T10:24:57.864Z,75.00
2023-03-18T10:27:10.500Z,75.00
2023-03-18T10:29:46.550Z,74.60
2023-03-18T10:32:03.149Z,75.10
2023-03-18T10:34:11.816Z,75.10
2023-03-18T10:36:20.828Z,74.40
2023-03-18T10:38:27.065Z,73.90
2023-03-18T10:40:36.527Z,74.30
2023-03-18T10:42:40.267Z,74.20
2023-03-18T10:44:43.354Z,73.00
2023-03-18T10:46:48.683Z,73.10
2023-03-18T10:48:57.269Z,73.60
2023-03-18T10:51:08.213Z,73.30
2023-03-18T10:53:18.885Z,73.00
2023-03-18T10:55:29.310Z,73.20
2023-03-18T10:57:33.572Z,73.00
2023-03-18T10:59:36.312Z,73.00
2023-03-18T11:01:40.778Z,71.80
2023-03-18T11:03:46.796Z,71.30
2023-03-18T11:05:51.552Z,70.30
2023-03-18T11:07:59.855Z,70.00
2023-03-18T11:10:13.346Z,69.50
2023-03-18T11:12:19.314Z,68.60
2023-03-18T11:14:29.804Z,68.20
2023-03-18T11:16:39.641Z,69.40
2023-03-18T11:18:46.517Z,69.40
2023-03-18T11:20:56.041Z,68.60
2023-03-18T11:23:12.685Z,68.70
2023-03-18T11:25:17.187Z,67.40
2023-03-18T11:27:26.869Z,66.70
2023-03-18T11:29:34.322Z,65.90
2023-03-18T11:31:50.684Z,65.70
2023-03-18T11:33:59.012Z,66.50
2023-03-18T11:36:07.049Z,65.70
2023-03-18T11:38:16.646Z,65.10
2023-03-18T11:40:25.757Z,65.60
2023-03-18T11:42:28.431Z,64.20
2023-03-18T11:44:33.853Z,65.00
2023-03-18T11:46:41.157Z,65.10
2023-03-18T11:48:45.034Z,64.20
2023-03-18T11:51:02.242Z,62.80
2023-03-18T11:53:11.605Z,63.30
2023-03-18T11:55:21.468Z,62.80
2023-03-18T11:57:32.265Z,62.70
2023-03-18T11:59:44.846Z,62.50
2023-03-18T12:01:58.598Z,59.30
2023-03-18T12:04:29.818Z,60.60
2023-03-18T12:06:39.003Z,61.60
2023-03-18T12:09:04.988Z,62.70
2023-03-18T12:11:14.712Z,62.50
2023-03-18T12:13:37.320Z,62.50
2023-03-18T12:15:48.467Z,61.80
2023-03-18T12:17:59.838Z,62.40
2023-03-18T12:20:13.993Z,61.90
2023-03-18T12:22:35.716Z,62.50
2023-03-18T12:24:54.601Z,61.50
2023-03-18T12:27:05.863Z,61.10
2023-03-18T12:29:31.745Z,62.00
2023-03-18T12:31:57.329Z,62.20
2023-03-18T12:34:04.514Z,61.70
2023-03-18T12:36:19.016Z,61.00
2023-03-18T12:38:46.850Z,61.10
2023-03-18T12:41:00.612Z,60.50
2023-03-18T12:43:23.574Z,60.50
2023-03-18T12:45:31.698Z,61.00
2023-03-18T12:47:40.599Z,60.70
2023-03-18T12:49:47.718Z,60.30
2023-03-18T12:51:57.156Z,60.00
2023-03-18T12:54:09.633Z,60.10
2023-03-18T12:56:17.260Z,59.50
2023-03-18T12:58:24.108Z,60.20
2023-03-18T13:00:32.319Z,60.10
2023-03-18T13:02:43.687Z,58.60
2023-03-18T13:04:55.306Z,59.50
2023-03-18T13:07:04.505Z,60.30
2023-03-18T13:09:20.963Z,59.50
2023-03-18T13:11:57.616Z,58.40
2023-03-18T13:14:06.208Z,59.80
2023-03-18T13:16:09.992Z,60.00
2023-03-18T13:18:20.800Z,60.00
2023-03-18T13:20:45.434Z,60.30
2023-03-18T13:23:06.795Z,58.90
2023-03-18T13:25:19.442Z,58.70
2023-03-18T13:27:35.849Z,59.10
2023-03-18T13:29:47.869Z,59.30
2023-03-18T13:32:00.595Z,59.40
2023-03-18T13:34:31.574Z,59.80
2023-03-18T13:37:18.537Z,59.30
2023-03-18T13:39:36.147Z,59.00
2023-03-18T13:42:13.559Z,57.90
2023-03-18T13:44:23.528Z,58.60
2023-03-18T13:46:30.698Z,59.10
2023-03-18T13:48:35.408Z,58.80
2023-03-18T13:50:41.276Z,57.50
2023-03-18T13:52:45.627Z,57.70
2023-03-18T13:54:48.615Z,58.60
2023-03-18T13:56:55.516Z,58.60
2023-03-18T13:58:58.565Z,58.70
2023-03-18T14:01:17.622Z,58.50
2023-03-18T14:03:23.197Z,58.50
2023-03-18T14:05:40.058Z,58.40
2023-03-18T14:07:49.531Z,58.30
2023-03-18T14:10:02.477Z,58.40
2023-03-18T14:12:39.798Z,58.60
2023-03-18T14:14:58.739Z,58.40
2023-03-18T14:17:01.742Z,59.10
2023-03-18T14:19:21.418Z,59.40
2023-03-18T14:21:26.959Z,58.10
2023-03-18T14:23:37.076Z,58.60
2023-03-18T14:25:54.640Z,59.30
2023-03-18T14:28:13.572Z,59.10
2023-03-18T14:30:43.502Z,59.80
2023-03-18T14:32:58.215Z,60.00
2023-03-18T14:35:05.549Z,60.20
2023-03-18T14:37:27.918Z,59.90
2023-03-18T14:39:36.370Z,60.80
2023-03-18T14:41:45.993Z,61.20
2023-03-18T14:44:03.976Z,61.80
2023-03-18T14:46:17.477Z,62.50
2023-03-18T14:48:24.339Z,60.30
2023-03-18T14:50:36.897Z,59.90
2023-03-18T14:52:42.455Z,60.20
2023-03-18T14:54:47.862Z,60.70
2023-03-18T14:56:54.692Z,60.50
2023-03-18T14:58:57.999Z,60.00
2023-03-18T15:01:07.172Z,59.30
2023-03-18T15:03:15.799Z,59.10
2023-03-18T15:05:22.675Z,59.60
2023-03-18T15:07:35.125Z,59.20
2023-03-18T15:09:38.165Z,59.40
2023-03-18T15:11:44.395Z,60.10
2023-03-18T15:13:49.485Z,60.90
2023-03-18T15:15:56.470Z,59.70
2023-03-18T15:18:04.000Z,60.40
2023-03-18T15:20:12.777Z,60.00
2023-03-18T15:22:26.067Z,60.40
2023-03-18T15:24:29.019Z,60.90
2023-03-18T15:26:35.171Z,60.40
2023-03-18T15:28:39.827Z,59.90
2023-03-18T15:30:54.410Z,59.80
2023-03-18T15:33:05.183Z,60.60
2023-03-18T15:35:16.626Z,60.60
2023-03-18T15:37:34.117Z,60.40
2023-03-18T15:39:38.627Z,61.40
2023-03-18T15:41:41.537Z,61.20
2023-03-18T15:43:47.602Z,61.00
2023-03-18T15:45:56.671Z,61.40
2023-03-18T15:48:08.037Z,60.90
2023-03-18T15:50:25.457Z,61.40
2023-03-18T15:52:33.360Z,60.80
2023-03-18T15:54:41.144Z,60.80
2023-03-18T15:56:46.293Z,61.10
2023-03-18T15:58:58.816Z,60.60
2023-03-18T16:01:02.251Z,61.40
2023-03-18T16:03:18.505Z,61.20
2023-03-18T16:05:26.020Z,61.30
2023-03-18T16:07:29.470Z,61.10
2023-03-18T16:09:34.513Z,62.30
2023-03-18T16:11:37.850Z,62.40
2023-03-18T16:13:43.312Z,62.30
2023-03-18T16:15:47.644Z,62.20
2023-03-18T16:17:51.651Z,62.30
2023-03-18T16:19:56.988Z,62.10
2023-03-18T16:22:00.398Z,62.10
2023-03-18T16:24:03.753Z,61.90
2023-03-18T16:26:14.563Z,62.30
2023-03-18T16:28:21.085Z,61.60
2023-03-18T16:30:26.006Z,62.20
2023-03-18T16:32:31.147Z,62.10
2023-03-18T16:34:34.854Z,61.90
2023-03-18T16:36:38.333Z,61.70
2023-03-18T16:38:41.162Z,61.40
2023-03-18T16:40:44.511Z,61.20
2023-03-18T16:42:48.437Z,61.10
2023-03-18T16:44:51.267Z,61.70
2023-03-18T16:46:56.532Z,62.00
2023-03-18T16:49:00.950Z,61.40
2023-03-18T16:51:04.556Z,61.60
2023-03-18T16:53:17.391Z,62.00
2023-03-18T16:55:20.696Z,62.30
2023-03-18T16:57:24.863Z,62.50
2023-03-18T16:59:31.124Z,62.80
2023-03-18T17:01:34.134Z,63.10
2023-03-18T17:03:37.981Z,63.30
2023-03-18T17:05:42.754Z,63.70
2023-03-18T17:07:46.809Z,63.70
2023-03-18T17:09:49.667Z,64.10
2023-03-18T17:11:54.824Z,64.30
2023-03-18T17:13:57.637Z,64.70
2023-03-18T17:16:00.406Z,64.70
2023-03-18T17:18:03.229Z,64.80
2023-03-18T17:20:16.664Z,64.90
2023-03-18T17:22:24.713Z,65.10
2023-03-18T17:24:27.459Z,65.50
2023-03-18T17:26:30.877Z,65.50
2023-03-18T17:28:38.133Z,65.70
2023-03-18T17:30:41.295Z,65.80
2023-03-18T17:32:46.120Z,66.30
2023-03-18T17:34:51.667Z,66.20
2023-03-18T17:36:56.506Z,66.40
2023-03-18T17:39:00.575Z,66.50
2023-03-18T17:41:05.684Z,66.80
2023-03-18T17:43:12.367Z,67.10
2023-03-18T17:45:24.065Z,68.00
2023-03-18T17:47:27.092Z,68.20
2023-03-18T17:49:29.834Z,68.40
2023-03-18T17:51:32.945Z,68.50
2023-03-18T17:53:38.091Z,68.70
2023-03-18T17:55:42.391Z,68.60
2023-03-18T17:57:45.584Z,68.40
2023-03-18T17:59:48.644Z,68.30
2023-03-18T18:01:52.411Z,68.30
2023-03-18T18:03:56.806Z,68.50
2023-03-18T18:06:00.326Z,68.30
2023-03-18T18:08:03.260Z,68.40
2023-03-18T18:10:06.953Z,68.60
2023-03-18T18:12:16.303Z,68.70
2023-03-18T18:14:22.483Z,68.70
2023-03-18T18:16:26.420Z,68.80
2023-03-18T18:18:29.549Z,68.70
2023-03-18T18:20:32.529Z,68.90
2023-03-18T18:22:35.316Z,68.90
2023-03-18T18:24:39.284Z,68.80
2023-03-18T18:26:42.333Z,69.20
2023-03-18T18:28:48.286Z,69.20
2023-03-18T18:30:51.278Z,69.40
2023-03-18T18:32:54.436Z,69.30
2023-03-18T18:34:57.315Z,69.40
2023-03-18T18:37:00.128Z,70.20
2023-03-18T18:39:04.889Z,70.70
2023-03-18T18:41:08.074Z,71.70
2023-03-18T18:43:11.129Z,71.90
2023-03-18T18:45:19.240Z,71.70
2023-03-18T18:47:23.353Z,71.80
2023-03-18T18:49:26.345Z,71.60
2023-03-18T18:51:29.111Z,71.50
2023-03-18T18:53:35.756Z,71.50
2023-03-18T18:55:38.723Z,71.30
2023-03-18T18:57:43.176Z,71.00
2023-03-18T18:59:46.485Z,71.10
2023-03-18T19:01:50.870Z,70.90
2023-03-18T19:03:54.065Z,70.70
2023-03-18T19:05:58.014Z,70.60
2023-03-18T19:08:03.728Z,70.70
2023-03-18T19:10:08.393Z,70.90
2023-03-18T19:12:16.912Z,71.60
2023-03-18T19:14:21.900Z,71.70
2023-03-18T19:16:31.752Z,71.70
2023-03-18T19:18:39.404Z,71.50
2023-03-18T19:20:42.946Z,71.60
2023-03-18T19:22:45.899Z,71.60
2023-03-18T19:24:50.071Z,72.20
2023-03-18T19:26:53.343Z,72.50
2023-03-18T19:28:59.464Z,73.00
2023-03-18T19:31:02.605Z,73.10
2023-03-18T19:33:14.815Z,73.30
2023-03-18T19:35:18.965Z,73.50
2023-03-18T19:37:25.664Z,73.30
2023-03-18T19:39:28.708Z,73.50
2023-03-18T19:41:31.922Z,73.50
2023-03-18T19:43:34.718Z,73.90
2023-03-18T19:45:37.500Z,74.10
2023-03-18T19:47:41.908Z,74.40
2023-03-18T19:49:45.531Z,74.60
2023-03-18T19:51:50.218Z,74.70
2023-03-18T19:53:53.210Z,74.80
2023-03-18T19:55:56.441Z,74.80
2023-03-18T19:57:59.810Z,75.00
2023-03-18T20:00:05.856Z,75.00
2023-03-18T20:02:24.316Z,74.90
2023-03-18T20:04:28.939Z,74.90
2023-03-18T20:06:31.689Z,74.70
2023-03-18T20:08:35.782Z,74.80
2023-03-18T20:10:39.217Z,74.80
2023-03-18T20:12:43.915Z,74.90
2023-03-18T20:14:46.794Z,75.00
2023-03-18T20:16:49.695Z,75.10
2023-03-18T20:18:52.524Z,75.20
2023-03-18T20:20:55.641Z,75.30
2023-03-18T20:23:01.120Z,75.40
2023-03-18T20:25:08.318Z,75.60
2023-03-18T20:27:12.136Z,75.70
2023-03-18T20:29:19.518Z,76.10
2023-03-18T20:31:22.545Z,76.40
2023-03-18T20:33:26.602Z,76.60
2023-03-18T20:35:31.507Z,76.60
2023-03-18T20:37:36.064Z,76.60
2023-03-18T20:39:38.889Z,76.40
2023-03-18T20:41:42.933Z,76.30
2023-03-18T20:43:49.167Z,76.20
2023-03-18T20:45:53.260Z,76.10
2023-03-18T20:47:56.616Z,76.10
2023-03-18T20:49:59.565Z,76.30
2023-03-18T20:52:02.443Z,76.60
2023-03-18T20:54:17.545Z,76.90
2023-03-18T20:56:22.804Z,76.70
2023-03-18T20:58:28.458Z,76.60
2023-03-18T21:00:33.042Z,76.70
2023-03-18T21:02:37.065Z,77.10
2023-03-18T21:04:39.786Z,77.30
2023-03-18T21:06:43.437Z,78.00
2023-03-18T21:08:46.532Z,77.10
2023-03-18T21:10:49.605Z,76.90
2023-03-18T21:12:53.003Z,77.00
2023-03-18T21:14:57.424Z,77.30
2023-03-18T21:17:00.425Z,77.60
2023-03-18T21:19:04.064Z,77.50
2023-03-18T21:21:06.955Z,77.30
2023-03-18T21:23:19.756Z,77.20
2023-03-18T21:25:24.285Z,77.20
2023-03-18T21:27:29.738Z,77.00
2023-03-18T21:29:32.633Z,77.00
2023-03-18T21:31:37.105Z,77.00
2023-03-18T21:33:41.871Z,77.30
2023-03-18T21:35:44.611Z,77.60
2023-03-18T21:37:47.465Z,77.60
2023-03-18T21:39:51.365Z,77.30
2023-03-18T21:41:58.528Z,77.40
2023-03-18T21:44:01.366Z,77.60
2023-03-18T21:46:06.547Z,77.60
2023-03-18T21:48:10.655Z,77.60
2023-03-18T21:50:20.659Z,77.70
2023-03-18T21:52:29.928Z,78.20
2023-03-18T21:54:32.700Z,78.00
2023-03-18T21:56:35.492Z,78.30
2023-03-18T21:58:38.320Z,78.10
2023-03-18T22:00:41.085Z,78.10
2023-03-18T22:02:44.349Z,78.30
2023-03-18T22:04:48.429Z,78.20
2023-03-18T22:06:51.171Z,78.20
2023-03-18T22:08:53.958Z,78.10
2023-03-18T22:10:56.806Z,78.00
2023-03-18T22:12:59.878Z,78.00
2023-03-18T22:15:02.934Z,78.00
2023-03-18T22:17:05.925Z,78.40
2023-03-18T22:19:08.811Z,78.60
2023-03-18T22:21:18.126Z,78.80
2023-03-18T22:23:23.381Z,79.10
2023-03-18T22:25:30.668Z,79.00
2023-03-18T22:27:33.848Z,79.10
2023-03-18T22:29:36.608Z,79.00
2023-03-18T22:31:41.081Z,78.70
2023-03-18T22:33:43.851Z,79.00
2023-03-18T22:35:46.623Z,79.10
2023-03-18T22:37:51.691Z,79.20
2023-03-18T22:39:54.961Z,79.20
2023-03-18T22:41:57.757Z,79.20
2023-03-18T22:44:03.426Z,79.20
2023-03-18T22:46:09.074Z,79.70
2023-03-18T22:48:17.182Z,79.90
2023-03-18T22:50:20.893Z,80.50
2023-03-18T22:52:26.088Z,80.50
2023-03-18T22:54:30.400Z,80.80
2023-03-18T22:56:33.229Z,81.10
2023-03-18T22:58:35.948Z,81.10
2023-03-18T23:00:40.205Z,81.00
2023-03-18T23:02:42.972Z,80.90
2023-03-18T23:04:47.606Z,80.70
2023-03-18T23:06:50.619Z,81.00
2023-03-18T23:08:53.376Z,80.60
2023-03-18T23:11:00.137Z,80.10
2023-03-18T23:13:03.497Z,79.90
2023-03-18T23:15:08.036Z,79.90
2023-03-18T23:17:15.615Z,79.70
2023-03-18T23:19:18.323Z,79.60
2023-03-18T23:21:22.982Z,79.10
2023-03-18T23:23:25.996Z,78.80
2023-03-18T23:25:28.957Z,78.60
2023-03-18T23:27:34.417Z,78.50
2023-03-18T23:29:37.147Z,78.30
2023-03-18T23:31:39.900Z,78.30
2023-03-18T23:33:43.205Z,78.30
2023-03-18T23:35:47.425Z,78.60
2023-03-18T23:37:50.582Z,78.90
2023-03-18T23:39:53.347Z,79.20
2023-03-18T23:41:56.255Z,79.60
2023-03-18T23:44:00.912Z,79.90
2023-03-18T23:46:03.999Z,79.80
2023-03-18T23:48:07.611Z,79.30
2023-03-18T23:50:12.127Z,79.40
2023-03-18T23:52:16.387Z,79.20
2023-03-18T23:54:19.139Z,79.20
2023-03-18T23:56:22.107Z,78.90
2023-03-18T23:58:24.835Z,79.00
